createdAt,value
2022-12-07T00:00:17.787Z,73.71
2022-12-07T00:03:26.246Z,73.13
2022-12-07T00:06:32.466Z,73.28
2022-12-07T00:09:38.397Z,73.07
2022-12-07T00:12:44.631Z,73.11
2022-12-07T00:15:50.220Z,72.84
2022-12-07T00:19:00.865Z,72.91
2022-12-07T00:22:07.705Z,73.34
2022-12-07T00:25:13.930Z,72.75
2022-12-07T00:28:19.765Z,73.02
2022-12-07T00:31:30.575Z,72.96
2022-12-07T00:34:38.958Z,73.01
2022-12-07T00:37:45.249Z,73.49
2022-12-07T00:41:00.021Z,72.92
2022-12-07T00:44:08.875Z,73.19
2022-12-07T00:47:14.392Z,73.37
2022-12-07T00:50:23.442Z,73.24
2022-12-07T00:53:32.157Z,73.37
2022-12-07T00:56:40.657Z,73.62
2022-12-07T00:59:46.080Z,73.23
2022-12-07T01:02:52.730Z,73.08
2022-12-07T01:06:03.717Z,73.02
2022-12-07T01:09:10.057Z,73.14
2022-12-07T01:12:15.380Z,73.24
2022-12-07T01:15:22.178Z,73.45
2022-12-07T01:18:27.545Z,72.99
2022-12-07T01:21:39.081Z,73.16
2022-12-07T01:24:44.389Z,72.95
2022-12-07T01:27:50.670Z,73.25
2022-12-07T01:31:03.990Z,73.24
2022-12-07T01:34:10.569Z,73.19
2022-12-07T01:37:18.894Z,72.76
2022-12-07T01:40:25.168Z,72.86
2022-12-07T01:43:36.800Z,72.60
2022-12-07T01:46:44.979Z,72.44
2022-12-07T01:49:53.744Z,72.21
2022-12-07T01:53:09.450Z,72.07
2022-12-07T01:56:23.218Z,72.41
2022-12-07T01:59:30.748Z,72.00
2022-12-07T02:02:41.825Z,72.07
2022-12-07T02:05:52.067Z,71.85
2022-12-07T02:09:00.208Z,72.20
2022-12-07T02:12:10.734Z,72.65
2022-12-07T02:15:17.250Z,72.37
2022-12-07T02:18:46.969Z,72.54
2022-12-07T02:22:11.277Z,72.33
2022-12-07T02:25:45.699Z,72.81
2022-12-07T02:29:20.030Z,73.12
2022-12-07T02:32:39.716Z,72.69
2022-12-07T02:35:55.042Z,72.70
2022-12-07T02:39:15.954Z,72.44
2022-12-07T02:42:35.349Z,72.84
2022-12-07T02:45:48.825Z,72.92
2022-12-07T02:48:56.002Z,72.80
2022-12-07T02:52:03.455Z,73.03
2022-12-07T02:55:12.989Z,73.24
2022-12-07T02:58:42.800Z,73.76
2022-12-07T03:02:08.959Z,73.54
2022-12-07T03:05:45.600Z,73.57
2022-12-07T03:09:06.473Z,73.81
2022-12-07T03:12:23.137Z,73.82
2022-12-07T03:15:38.247Z,74.03
2022-12-07T03:18:54.979Z,74.07
2022-12-07T03:22:08.209Z,73.84
2022-12-07T03:25:20.467Z,73.95
2022-12-07T03:28:33.383Z,73.76
2022-12-07T03:31:48.918Z,74.11
2022-12-07T03:35:08.183Z,73.89
2022-12-07T03:38:23.571Z,73.95
2022-12-07T03:41:37.694Z,73.66
2022-12-07T03:44:47.707Z,73.88
2022-12-07T03:48:09.352Z,74.40
2022-12-07T03:51:30.239Z,74.25
2022-12-07T03:54:46.026Z,74.33
2022-12-07T03:58:00.253Z,74.68
2022-12-07T04:01:07.940Z,74.84
2022-12-07T04:04:14.882Z,74.64
2022-12-07T04:07:23.593Z,74.79
2022-12-07T04:10:30.150Z,74.54
2022-12-07T04:13:56.284Z,74.42
2022-12-07T04:17:03.682Z,74.06
2022-12-07T04:20:11.505Z,74.52
2022-12-07T04:23:20.488Z,74.33
2022-12-07T04:26:26.183Z,74.05
2022-12-07T04:29:32.726Z,73.81
2022-12-07T04:32:38.118Z,73.97
2022-12-07T04:35:47.116Z,73.67
2022-12-07T04:38:58.719Z,73.81
2022-12-07T04:42:07.163Z,73.96
2022-12-07T04:45:14.186Z,73.97
2022-12-07T04:48:20.524Z,73.88
2022-12-07T04:51:30.460Z,73.66
2022-12-07T04:54:39.487Z,74.29
2022-12-07T04:57:44.863Z,74.10
2022-12-07T05:00:51.424Z,73.87
2022-12-07T05:03:57.544Z,73.48
2022-12-07T05:07:04.209Z,73.78
2022-12-07T05:10:14.338Z,73.61
2022-12-07T05:13:20.776Z,73.63
2022-12-07T05:16:26.559Z,73.62
2022-12-07T05:19:32.876Z,73.36
2022-12-07T05:22:38.454Z,73.84
2022-12-07T05:25:49.698Z,73.76
2022-12-07T05:28:57.104Z,73.90
2022-12-07T05:32:03.451Z,74.26
2022-12-07T05:35:12.388Z,73.87
2022-12-07T05:38:18.572Z,74.26
2022-12-07T05:41:42.705Z,74.10
2022-12-07T05:44:51.282Z,74.25
2022-12-07T05:47:56.589Z,74.39
2022-12-07T05:51:03.921Z,74.60
2022-12-07T05:54:09.600Z,74.22
2022-12-07T05:57:18.769Z,74.75
2022-12-07T06:00:21.976Z,74.53
2022-12-07T06:03:28.355Z,74.68
2022-12-07T06:06:33.752Z,74.81
2022-12-07T06:09:40.693Z,75.03
2022-12-07T06:12:47.445Z,74.91
2022-12-07T06:15:53.660Z,74.87
2022-12-07T06:18:58.980Z,74.99
2022-12-07T06:22:08.637Z,74.88
2022-12-07T06:25:14.017Z,74.36
2022-12-07T06:28:23.368Z,74.71
2022-12-07T06:31:28.859Z,74.72
2022-12-07T06:34:35.577Z,75.26
2022-12-07T06:37:40.927Z,74.68
2022-12-07T06:40:47.479Z,74.53
2022-12-07T06:43:56.566Z,75.46
2022-12-07T06:47:31.937Z,75.67
2022-12-07T06:50:28.807Z,75.38
2022-12-07T06:53:35.041Z,75.73
2022-12-07T06:56:41.088Z,75.43
2022-12-07T06:59:50.273Z,75.81
2022-12-07T07:02:55.868Z,75.64
2022-12-07T07:06:03.696Z,76.24
2022-12-07T07:09:10.690Z,76.28
2022-12-07T07:12:17.070Z,75.64
2022-12-07T07:15:25.586Z,76.02
2022-12-07T07:18:32.871Z,76.20
2022-12-07T07:21:38.266Z,76.19
2022-12-07T07:24:44.492Z,76.05
2022-12-07T07:27:52.481Z,76.61
2022-12-07T07:31:03.548Z,76.81
2022-12-07T07:34:09.215Z,76.78
2022-12-07T07:37:27.248Z,75.99
2022-12-07T07:40:35.593Z,76.80
2022-12-07T07:43:42.040Z,76.32
2022-12-07T07:46:53.633Z,76.37
2022-12-07T07:50:01.078Z,76.18
2022-12-07T07:53:10.323Z,76.05
2022-12-07T07:56:16.544Z,76.07
2022-12-07T07:59:21.932Z,75.96
2022-12-07T08:02:31.408Z,76.23
2022-12-07T08:05:36.755Z,75.82
2022-12-07T08:08:43.326Z,76.07
2022-12-07T08:11:48.621Z,75.77
2022-12-07T08:14:54.889Z,76.18
2022-12-07T08:18:03.667Z,75.57
2022-12-07T08:21:14.706Z,75.82
2022-12-07T08:24:20.633Z,75.45
2022-12-07T08:27:28.142Z,75.73
2022-12-07T08:30:35.439Z,75.21
2022-12-07T08:33:45.563Z,75.25
2022-12-07T08:36:50.968Z,75.50
2022-12-07T08:39:57.421Z,74.94
2022-12-07T08:43:03.872Z,74.75
2022-12-07T08:46:19.935Z,74.81
2022-12-07T08:49:37.818Z,74.41
2022-12-07T08:52:46.471Z,74.82
2022-12-07T08:55:54.033Z,74.05
2022-12-07T08:59:03.979Z,73.85
2022-12-07T09:02:11.276Z,74.01
2022-12-07T09:05:20.676Z,74.19
2022-12-07T09:08:37.220Z,73.87
2022-12-07T09:11:43.434Z,73.41
2022-12-07T09:14:48.875Z,73.88
2022-12-07T09:17:56.154Z,72.99
2022-12-07T09:21:04.888Z,72.90
2022-12-07T09:24:11.906Z,73.04
2022-12-07T09:27:18.849Z,73.42
2022-12-07T09:30:25.081Z,72.80
2022-12-07T09:33:30.544Z,72.56
2022-12-07T09:36:39.635Z,72.88
2022-12-07T09:39:50.313Z,72.96
2022-12-07T09:43:08.391Z,72.02
2022-12-07T09:46:20.524Z,72.22
2022-12-07T09:49:32.618Z,71.89
2022-12-07T09:52:40.806Z,72.20
2022-12-07T09:55:48.213Z,71.92
2022-12-07T09:59:00.058Z,71.61
2022-12-07T10:02:40.174Z,70.86
2022-12-07T10:05:51.490Z,70.85
2022-12-07T10:09:00.520Z,72.13
2022-12-07T10:12:12.851Z,71.77
2022-12-07T10:15:19.106Z,72.14
2022-12-07T10:18:33.726Z,71.77
2022-12-07T10:21:39.970Z,72.17
2022-12-07T10:24:56.492Z,71.56
2022-12-07T10:28:13.915Z,71.81
2022-12-07T10:31:25.443Z,71.57
2022-12-07T10:34:41.427Z,70.07
2022-12-07T10:37:48.604Z,70.64
2022-12-07T10:41:09.378Z,70.74
2022-12-07T10:44:27.334Z,71.16
2022-12-07T10:47:43.406Z,70.48
2022-12-07T10:51:19.904Z,70.45
2022-12-07T10:54:48.215Z,71.13
2022-12-07T10:58:29.266Z,69.28
2022-12-07T11:01:50.494Z,69.08
2022-12-07T11:05:15.561Z,69.63
2022-12-07T11:08:43.526Z,68.75
2022-12-07T11:12:07.159Z,69.07
2022-12-07T11:15:28.316Z,68.09
2022-12-07T11:18:53.034Z,68.32
2022-12-07T11:22:06.572Z,68.03
2022-12-07T11:25:34.176Z,69.33
2022-12-07T11:29:21.233Z,67.89
2022-12-07T11:33:08.767Z,68.82
2022-12-07T11:36:38.064Z,68.46
2022-12-07T11:39:54.496Z,68.52
2022-12-07T11:43:11.290Z,68.41
2022-12-07T11:46:21.440Z,67.81
2022-12-07T11:49:47.422Z,67.85
2022-12-07T11:53:07.162Z,68.22
2022-12-07T11:56:19.460Z,67.62
2022-12-07T11:59:35.472Z,67.28
2022-12-07T12:02:55.365Z,67.27
2022-12-07T12:06:04.160Z,66.77
2022-12-07T12:17:37.888Z,67.05
2022-12-07T12:20:55.639Z,67.85
2022-12-07T12:24:15.797Z,67.50
2022-12-07T12:27:30.792Z,66.71
2022-12-07T12:30:44.250Z,66.17
2022-12-07T12:33:54.773Z,66.51
2022-12-07T12:37:03.382Z,65.90
2022-12-07T12:40:51.086Z,65.66
2022-12-07T12:43:57.820Z,65.56
2022-12-07T12:47:07.090Z,66.37
2022-12-07T12:50:25.642Z,66.58
2022-12-07T12:53:32.535Z,66.83
2022-12-07T12:56:55.527Z,65.94
2022-12-07T13:00:06.776Z,65.26
2022-12-07T13:03:32.903Z,65.07
2022-12-07T13:06:42.081Z,65.47
2022-12-07T13:09:49.887Z,66.16
2022-12-07T13:13:40.649Z,64.72
2022-12-07T13:16:47.169Z,65.38
2022-12-07T13:20:05.238Z,64.50
2022-12-07T13:23:14.430Z,63.63
2022-12-07T13:26:23.446Z,63.51
2022-12-07T13:29:42.516Z,62.20
2022-12-07T13:32:59.894Z,62.59
2022-12-07T13:36:21.682Z,61.64
2022-12-07T13:39:29.932Z,60.85
2022-12-07T13:42:39.089Z,61.22
2022-12-07T13:45:54.261Z,60.10
2022-12-07T13:49:00.602Z,60.96
2022-12-07T13:52:22.340Z,61.53
2022-12-07T13:55:29.476Z,60.24
2022-12-07T13:58:37.957Z,60.05
2022-12-07T14:01:51.904Z,60.63
2022-12-07T14:05:14.643Z,60.01
2022-12-07T14:08:27.492Z,61.15
2022-12-07T14:11:34.975Z,60.69
2022-12-07T14:14:41.317Z,60.65
2022-12-07T14:18:00.026Z,60.54
2022-12-07T14:21:19.962Z,60.67
2022-12-07T14:24:25.304Z,60.87
2022-12-07T14:27:37.943Z,60.62
2022-12-07T14:30:46.628Z,61.58
2022-12-07T14:33:55.707Z,61.05
2022-12-07T14:37:03.619Z,61.73
2022-12-07T14:40:16.143Z,61.49
2022-12-07T14:43:23.750Z,61.18
2022-12-07T14:46:30.511Z,61.16
2022-12-07T14:49:38.694Z,61.75
2022-12-07T14:56:18.085Z,61.53
2022-12-07T14:59:24.636Z,61.00
2022-12-07T15:02:29.989Z,61.07
2022-12-07T15:05:40.340Z,61.02
2022-12-07T15:08:45.799Z,62.17
2022-12-07T15:11:52.303Z,60.99
2022-12-07T15:14:57.685Z,61.43
2022-12-07T15:18:04.002Z,61.10
2022-12-07T15:21:18.786Z,61.38
2022-12-07T15:24:25.526Z,61.61
2022-12-07T15:27:31.006Z,61.75
2022-12-07T15:30:37.328Z,62.32
2022-12-07T15:33:43.361Z,61.42
2022-12-07T15:36:52.589Z,62.04
2022-12-07T15:40:00.484Z,62.14
2022-12-07T15:43:33.599Z,62.22
2022-12-07T15:46:38.987Z,62.24
2022-12-07T15:49:48.244Z,62.14
2022-12-07T15:52:56.508Z,62.29
2022-12-07T15:56:03.993Z,62.36
2022-12-07T15:59:09.642Z,62.10
2022-12-07T16:02:15.941Z,61.43
2022-12-07T16:05:21.299Z,61.81
2022-12-07T16:08:36.226Z,61.73
2022-12-07T16:11:41.987Z,62.87
2022-12-07T16:14:48.533Z,61.91
2022-12-07T16:17:54.692Z,62.52
2022-12-07T16:21:01.235Z,62.18
2022-12-07T16:24:13.778Z,61.97
2022-12-07T16:27:20.772Z,62.33
2022-12-07T16:30:26.588Z,63.36
2022-12-07T16:33:33.072Z,62.74
2022-12-07T16:37:03.207Z,62.88
2022-12-07T16:40:09.249Z,63.44
2022-12-07T16:43:18.123Z,63.50
2022-12-07T16:46:24.515Z,63.73
2022-12-07T16:49:30.009Z,63.05
2022-12-07T16:52:36.534Z,63.20
2022-12-07T16:55:48.184Z,63.39
2022-12-07T16:58:54.382Z,63.31
2022-12-07T17:01:59.784Z,63.46
2022-12-07T17:05:06.574Z,62.46
2022-12-07T17:08:12.987Z,63.10
2022-12-07T17:11:26.540Z,62.24
2022-12-07T17:14:47.894Z,62.24
2022-12-07T17:18:00.186Z,62.08
2022-12-07T17:21:08.030Z,62.63
2022-12-07T17:24:18.214Z,62.54
2022-12-07T17:27:26.531Z,62.79
2022-12-07T17:30:32.764Z,62.55
2022-12-07T17:33:39.949Z,62.21
2022-12-07T17:36:48.196Z,62.56
2022-12-07T17:39:53.600Z,62.51
2022-12-07T17:43:03.084Z,62.70
2022-12-07T17:46:12.930Z,62.98
2022-12-07T17:49:20.449Z,62.00
2022-12-07T17:52:42.267Z,62.35
2022-12-07T17:56:20.047Z,61.71
2022-12-07T17:59:17.603Z,61.42
2022-12-07T18:02:23.855Z,61.81
2022-12-07T18:05:29.523Z,61.10
2022-12-07T18:08:40.537Z,61.71
2022-12-07T18:11:46.489Z,60.70
2022-12-07T18:14:55.764Z,61.43
2022-12-07T18:18:01.357Z,61.56
2022-12-07T18:21:14.394Z,61.03
2022-12-07T18:24:21.488Z,61.16
2022-12-07T18:27:27.772Z,62.44
2022-12-07T18:31:13.315Z,62.93
2022-12-07T18:34:08.991Z,63.45
2022-12-07T18:37:14.397Z,63.65
2022-12-07T18:40:20.892Z,62.99
2022-12-07T18:43:27.487Z,62.78
2022-12-07T18:46:38.561Z,63.15
2022-12-07T18:49:43.901Z,62.34
2022-12-07T18:52:51.264Z,62.51
2022-12-07T18:56:06.800Z,62.73
2022-12-07T18:59:32.757Z,62.56
2022-12-07T19:02:41.007Z,63.51
2022-12-07T19:05:47.514Z,62.64
2022-12-07T19:08:52.981Z,62.63
2022-12-07T19:12:03.516Z,62.65
2022-12-07T19:15:13.859Z,62.18
2022-12-07T19:18:23.061Z,63.06
2022-12-07T19:21:28.535Z,62.52
2022-12-07T19:24:34.853Z,62.22
2022-12-07T19:27:40.744Z,62.46
2022-12-07T19:30:47.661Z,63.02
2022-12-07T19:33:55.913Z,63.42
2022-12-07T19:37:02.870Z,62.28
2022-12-07T19:40:10.384Z,62.16
2022-12-07T19:43:16.828Z,63.28
2022-12-07T19:46:22.223Z,63.33
2022-12-07T19:49:34.540Z,63.39
2022-12-07T19:52:41.632Z,62.38
2022-12-07T19:55:48.168Z,62.70
2022-12-07T19:58:53.952Z,61.84
2022-12-07T20:02:01.043Z,62.96
2022-12-07T20:05:10.171Z,63.68
2022-12-07T20:08:17.103Z,64.57
2022-12-07T20:11:39.383Z,65.80
2022-12-07T20:14:47.849Z,66.33
2022-12-07T20:17:53.297Z,67.71
2022-12-07T20:21:03.227Z,68.92
2022-12-07T20:24:13.992Z,69.36
2022-12-07T20:27:20.475Z,70.11
2022-12-07T20:30:25.812Z,70.79
2022-12-07T20:33:33.427Z,71.10
2022-12-07T20:36:41.832Z,71.46
2022-12-07T20:39:48.253Z,71.14
2022-12-07T20:42:53.596Z,71.67
2022-12-07T20:46:00.261Z,71.55
2022-12-07T20:49:06.473Z,71.70
2022-12-07T20:52:15.444Z,71.47
2022-12-07T20:55:20.852Z,71.67
2022-12-07T20:58:28.834Z,71.42
2022-12-07T21:01:34.928Z,71.16
2022-12-07T21:04:41.422Z,70.76
2022-12-07T21:07:49.740Z,70.57
2022-12-07T21:10:56.196Z,70.72
2022-12-07T21:14:02.115Z,70.26
2022-12-07T21:17:08.354Z,70.86
2022-12-07T21:20:15.166Z,70.35
2022-12-07T21:23:24.233Z,70.03
2022-12-07T21:26:33.969Z,70.18
2022-12-07T21:29:44.296Z,70.01
2022-12-07T21:32:50.564Z,69.93
2022-12-07T21:35:57.164Z,69.94
2022-12-07T21:39:05.325Z,69.87
2022-12-07T21:42:11.790Z,69.52
2022-12-07T21:45:17.165Z,69.54
2022-12-07T21:48:24.325Z,69.34
2022-12-07T21:51:33.382Z,69.08
2022-12-07T21:54:44.759Z,69.30
2022-12-07T21:57:50.511Z,69.02
2022-12-07T22:00:56.975Z,68.34
2022-12-07T22:04:02.565Z,68.62
2022-12-07T22:07:09.079Z,68.65
2022-12-07T22:10:28.299Z,68.72
2022-12-07T22:13:55.024Z,67.82
2022-12-07T22:17:00.813Z,68.30
2022-12-07T22:20:08.681Z,67.83
2022-12-07T22:23:13.995Z,67.67
2022-12-07T22:26:24.685Z,67.23
2022-12-07T22:29:30.553Z,67.65
2022-12-07T22:32:48.411Z,67.49
2022-12-07T22:35:56.816Z,67.55
2022-12-07T22:39:04.632Z,67.00
2022-12-07T22:42:12.970Z,66.64
2022-12-07T22:45:20.152Z,67.27
2022-12-07T22:48:26.507Z,66.21
2022-12-07T22:51:36.203Z,66.62
2022-12-07T22:54:41.852Z,66.77
2022-12-07T22:57:51.040Z,66.82
2022-12-07T23:00:57.113Z,66.48
2022-12-07T23:04:03.726Z,66.63
2022-12-07T23:07:09.189Z,66.74
2022-12-07T23:10:16.644Z,66.35
2022-12-07T23:13:35.928Z,66.46
2022-12-07T23:16:42.350Z,66.52
2022-12-07T23:19:52.630Z,66.71
2022-12-07T23:23:01.984Z,66.63
2022-12-07T23:26:10.596Z,66.62
2022-12-07T23:29:20.263Z,66.86
2022-12-07T23:32:25.747Z,66.27
2022-12-07T23:35:31.932Z,66.44
2022-12-07T23:38:37.345Z,65.90
2022-12-07T23:41:43.605Z,65.92
2022-12-07T23:44:52.042Z,65.43
2022-12-07T23:47:58.252Z,65.38
2022-12-07T23:51:03.680Z,64.98
2022-12-07T23:54:10.393Z,64.77
2022-12-07T23:57:15.776Z,64.86
